sensor_id;sensor_type;location;lat;lon;timestamp;temperature;humidity
23550;DHT22;11953;49.010;8.608;2023-07-16T00:02:15;25.60;99.90
23550;DHT22;11953;49.010;8.608;2023-07-16T00:05:03;25.60;99.90
23550;DHT22;11953;49.010;8.608;2023-07-16T00:07:49;25.50;99.90
23550;DHT22;11953;49.010;8.608;2023-07-16T00:10:37;25.50;99.90
23550;DHT22;11953;49.010;8.608;2023-07-16T00:13:23;25.50;99.90
23550;DHT22;11953;49.010;8.608;2023-07-16T00:16:10;25.50;99.90
23550;DHT22;11953;49.010;8.608;2023-07-16T00:18:58;25.50;99.90
23550;DHT22;11953;49.010;8.608;2023-07-16T00:21:45;25.50;99.90
23550;DHT22;11953;49.010;8.608;2023-07-16T00:24:32;25.50;99.90
23550;DHT22;11953;49.010;8.608;2023-07-16T00:27:18;25.50;99.90
23550;DHT22;11953;49.010;8.608;2023-07-16T00:30:06;25.50;99.90
23550;DHT22;11953;49.010;8.608;2023-07-16T00:32:54;25.50;99.90
23550;DHT22;11953;49.010;8.608;2023-07-16T00:35:47;25.50;99.90
23550;DHT22;11953;49.010;8.608;2023-07-16T00:38:35;25.50;99.90
23550;DHT22;11953;49.010;8.608;2023-07-16T00:41:22;25.40;99.90
23550;DHT22;11953;49.010;8.608;2023-07-16T00:44:09;25.40;99.90
23550;DHT22;11953;49.010;8.608;2023-07-16T00:46:56;25.40;99.90
23550;DHT22;11953;49.010;8.608;2023-07-16T00:49:43;25.40;99.90
23550;DHT22;11953;49.010;8.608;2023-07-16T00:52:31;25.40;99.90
23550;DHT22;11953;49.010;8.608;2023-07-16T00:55:19;25.40;99.90
23550;DHT22;11953;49.010;8.608;2023-07-16T00:58:06;25.40;99.90
23550;DHT22;11953;49.010;8.608;2023-07-16T01:00:53;25.40;99.90
23550;DHT22;11953;49.010;8.608;2023-07-16T01:03:40;25.40;99.90
23550;DHT22;11953;49.010;8.608;2023-07-16T01:06:33;25.40;99.90
23550;DHT22;11953;49.010;8.608;2023-07-16T01:09:22;25.40;99.90
23550;DHT22;11953;49.010;8.608;2023-07-16T01:12:09;25.30;99.90
23550;DHT22;11953;49.010;8.608;2023-07-16T01:14:56;25.30;99.90
23550;DHT22;11953;49.010;8.608;2023-07-16T01:17:44;25.40;99.90
23550;DHT22;11953;49.010;8.608;2023-07-16T01:20:31;25.40;99.90
23550;DHT22;11953;49.010;8.608;2023-07-16T01:27:00;25.40;99.90
23550;DHT22;11953;49.010;8.608;2023-07-16T01:29:54;25.30;99.90
23550;DHT22;11953;49.010;8.608;2023-07-16T01:32:45;25.30;99.90
23550;DHT22;11953;49.010;8.608;2023-07-16T01:35:33;25.30;99.90
23550;DHT22;11953;49.010;8.608;2023-07-16T01:38:21;25.30;99.90
23550;DHT22;11953;49.010;8.608;2023-07-16T01:41:08;25.30;99.90
23550;DHT22;11953;49.010;8.608;2023-07-16T01:43:55;25.30;99.90
23550;DHT22;11953;49.010;8.608;2023-07-16T01:46:43;25.30;99.90
23550;DHT22;11953;49.010;8.608;2023-07-16T01:49:30;25.30;99.90
23550;DHT22;11953;49.010;8.608;2023-07-16T01:52:17;25.30;99.90
23550;DHT22;11953;49.010;8.608;2023-07-16T01:55:05;25.30;99.90
23550;DHT22;11953;49.010;8.608;2023-07-16T01:57:51;25.30;99.90
23550;DHT22;11953;49.010;8.608;2023-07-16T02:00:39;25.30;99.90
23550;DHT22;11953;49.010;8.608;2023-07-16T02:03:27;25.30;99.90
23550;DHT22;11953;49.010;8.608;2023-07-16T02:06:14;25.30;99.90
23550;DHT22;11953;49.010;8.608;2023-07-16T02:09:01;25.30;99.90
23550;DHT22;11953;49.010;8.608;2023-07-16T02:11:48;25.30;99.90
23550;DHT22;11953;49.010;8.608;2023-07-16T02:14:34;25.30;99.90
23550;DHT22;11953;49.010;8.608;2023-07-16T02:17:21;25.30;99.90
23550;DHT22;11953;49.010;8.608;2023-07-16T02:20:10;25.30;99.90
23550;DHT22;11953;49.010;8.608;2023-07-16T02:22:56;25.30;99.90
23550;DHT22;11953;49.010;8.608;2023-07-16T02:25:45;25.30;99.90
23550;DHT22;11953;49.010;8.608;2023-07-16T02:28:34;25.30;99.90
23550;DHT22;11953;49.010;8.608;2023-07-16T02:31:21;25.30;99.90
23550;DHT22;11953;49.010;8.608;2023-07-16T02:34:08;25.30;99.90
23550;DHT22;11953;49.010;8.608;2023-07-16T02:36:56;25.20;99.90
23550;DHT22;11953;49.010;8.608;2023-07-16T02:39:46;25.20;99.90
23550;DHT22;11953;49.010;8.608;2023-07-16T02:42:33;25.20;99.90
23550;DHT22;11953;49.010;8.608;2023-07-16T02:45:20;25.20;99.90
23550;DHT22;11953;49.010;8.608;2023-07-16T02:48:07;25.20;99.90
23550;DHT22;11953;49.010;8.608;2023-07-16T02:50:54;25.20;99.90
23550;DHT22;11953;49.010;8.608;2023-07-16T02:53:42;25.20;99.90
23550;DHT22;11953;49.010;8.608;2023-07-16T02:56:29;25.20;99.90
23550;DHT22;11953;49.010;8.608;2023-07-16T02:59:16;25.20;99.90
23550;DHT22;11953;49.010;8.608;2023-07-16T03:02:03;25.20;99.90
23550;DHT22;11953;49.010;8.608;2023-07-16T03:04:50;25.20;99.90
23550;DHT22;11953;49.010;8.608;2023-07-16T03:07:38;25.10;99.90
23550;DHT22;11953;49.010;8.608;2023-07-16T03:10:26;25.20;99.90
23550;DHT22;11953;49.010;8.608;2023-07-16T03:13:13;25.20;99.90
23550;DHT22;11953;49.010;8.608;2023-07-16T03:16:00;25.20;99.90
23550;DHT22;11953;49.010;8.608;2023-07-16T03:18:47;25.20;99.90
23550;DHT22;11953;49.010;8.608;2023-07-16T03:21:33;25.10;99.90
23550;DHT22;11953;49.010;8.608;2023-07-16T03:24:20;25.20;99.90
23550;DHT22;11953;49.010;8.608;2023-07-16T03:27:09;25.10;99.90
23550;DHT22;11953;49.010;8.608;2023-07-16T03:30:08;25.10;99.90
23550;DHT22;11953;49.010;8.608;2023-07-16T03:32:55;25.10;99.90
23550;DHT22;11953;49.010;8.608;2023-07-16T03:35:43;25.20;99.90
23550;DHT22;11953;49.010;8.608;2023-07-16T03:38:30;25.10;99.90
23550;DHT22;11953;49.010;8.608;2023-07-16T03:41:16;25.10;99.90
23550;DHT22;11953;49.010;8.608;2023-07-16T03:44:06;25.10;99.90
23550;DHT22;11953;49.010;8.608;2023-07-16T03:46:54;24.90;99.90
23550;DHT22;11953;49.010;8.608;2023-07-16T03:49:41;24.60;99.90
23550;DHT22;11953;49.010;8.608;2023-07-16T03:52:28;24.50;99.90
23550;DHT22;11953;49.010;8.608;2023-07-16T03:55:15;24.30;99.90
23550;DHT22;11953;49.010;8.608;2023-07-16T03:58:02;24.10;99.90
23550;DHT22;11953;49.010;8.608;2023-07-16T04:00:50;23.90;99.90
23550;DHT22;11953;49.010;8.608;2023-07-16T04:03:39;23.80;99.90
23550;DHT22;11953;49.010;8.608;2023-07-16T04:06:26;23.80;99.90
23550;DHT22;11953;49.010;8.608;2023-07-16T04:09:12;23.70;99.90
23550;DHT22;11953;49.010;8.608;2023-07-16T04:11:59;23.70;99.90
23550;DHT22;11953;49.010;8.608;2023-07-16T04:14:46;23.70;99.90
23550;DHT22;11953;49.010;8.608;2023-07-16T04:17:34;23.60;99.90
23550;DHT22;11953;49.010;8.608;2023-07-16T04:20:21;23.50;99.90
23550;DHT22;11953;49.010;8.608;2023-07-16T04:23:07;23.40;99.90
23550;DHT22;11953;49.010;8.608;2023-07-16T04:25:55;23.40;99.90
23550;DHT22;11953;49.010;8.608;2023-07-16T04:28:42;23.30;99.90
23550;DHT22;11953;49.010;8.608;2023-07-16T04:31:28;23.20;99.90
23550;DHT22;11953;49.010;8.608;2023-07-16T04:34:16;23.20;99.90
23550;DHT22;11953;49.010;8.608;2023-07-16T04:37:03;23.10;99.90
23550;DHT22;11953;49.010;8.608;2023-07-16T04:39:50;23.10;99.90
23550;DHT22;11953;49.010;8.608;2023-07-16T04:42:37;23.10;99.90
23550;DHT22;11953;49.010;8.608;2023-07-16T04:45:24;23.10;99.90
23550;DHT22;11953;49.010;8.608;2023-07-16T04:48:10;23.20;99.90
23550;DHT22;11953;49.010;8.608;2023-07-16T04:50:58;23.20;99.90
23550;DHT22;11953;49.010;8.608;2023-07-16T04:53:45;23.20;99.90
23550;DHT22;11953;49.010;8.608;2023-07-16T04:56:31;23.20;99.90
23550;DHT22;11953;49.010;8.608;2023-07-16T04:59:18;23.20;99.90
23550;DHT22;11953;49.010;8.608;2023-07-16T05:02:06;23.10;99.90
23550;DHT22;11953;49.010;8.608;2023-07-16T05:04:52;23.10;99.90
23550;DHT22;11953;49.010;8.608;2023-07-16T05:07:41;23.20;99.90
23550;DHT22;11953;49.010;8.608;2023-07-16T05:10:28;23.10;99.90
23550;DHT22;11953;49.010;8.608;2023-07-16T05:13:14;23.20;99.90
23550;DHT22;11953;49.010;8.608;2023-07-16T05:16:01;23.30;99.90
23550;DHT22;11953;49.010;8.608;2023-07-16T05:18:48;23.50;99.90
23550;DHT22;11953;49.010;8.608;2023-07-16T05:21:35;23.50;99.90
23550;DHT22;11953;49.010;8.608;2023-07-16T05:24:23;23.60;99.90
23550;DHT22;11953;49.010;8.608;2023-07-16T05:27:10;23.60;99.90
23550;DHT22;11953;49.010;8.608;2023-07-16T05:29:57;23.70;99.90
23550;DHT22;11953;49.010;8.608;2023-07-16T05:32:43;23.70;99.90
23550;DHT22;11953;49.010;8.608;2023-07-16T05:35:30;23.80;99.90
23550;DHT22;11953;49.010;8.608;2023-07-16T05:38:17;23.80;99.90
23550;DHT22;11953;49.010;8.608;2023-07-16T05:41:05;23.80;99.90
23550;DHT22;11953;49.010;8.608;2023-07-16T05:43:51;23.90;99.90
23550;DHT22;11953;49.010;8.608;2023-07-16T05:46:38;23.90;99.90
23550;DHT22;11953;49.010;8.608;2023-07-16T05:49:26;23.90;99.90
23550;DHT22;11953;49.010;8.608;2023-07-16T05:52:12;24.00;99.90
23550;DHT22;11953;49.010;8.608;2023-07-16T05:54:59;23.90;99.90
23550;DHT22;11953;49.010;8.608;2023-07-16T05:57:48;24.00;99.90
23550;DHT22;11953;49.010;8.608;2023-07-16T06:00:34;24.00;99.90
23550;DHT22;11953;49.010;8.608;2023-07-16T06:03:21;24.00;99.90
23550;DHT22;11953;49.010;8.608;2023-07-16T06:06:08;24.00;99.90
23550;DHT22;11953;49.010;8.608;2023-07-16T06:08:55;24.00;99.90
23550;DHT22;11953;49.010;8.608;2023-07-16T06:11:42;24.10;99.90
23550;DHT22;11953;49.010;8.608;2023-07-16T06:14:30;24.10;99.90
23550;DHT22;11953;49.010;8.608;2023-07-16T06:17:16;24.10;99.90
23550;DHT22;11953;49.010;8.608;2023-07-16T06:20:04;24.10;99.90
23550;DHT22;11953;49.010;8.608;2023-07-16T06:22:51;24.10;99.90
23550;DHT22;11953;49.010;8.608;2023-07-16T06:25:38;24.10;99.90
23550;DHT22;11953;49.010;8.608;2023-07-16T06:28:26;24.10;99.90
23550;DHT22;11953;49.010;8.608;2023-07-16T06:31:15;24.10;99.90
23550;DHT22;11953;49.010;8.608;2023-07-16T06:34:02;24.10;99.90
23550;DHT22;11953;49.010;8.608;2023-07-16T06:36:49;24.20;99.90
23550;DHT22;11953;49.010;8.608;2023-07-16T06:39:35;24.20;99.90
23550;DHT22;11953;49.010;8.608;2023-07-16T06:42:22;24.20;99.90
23550;DHT22;11953;49.010;8.608;2023-07-16T06:45:11;24.20;99.90
23550;DHT22;11953;49.010;8.608;2023-07-16T06:47:58;24.20;99.90
23550;DHT22;11953;49.010;8.608;2023-07-16T06:50:45;24.20;99.90
23550;DHT22;11953;49.010;8.608;2023-07-16T06:53:33;24.30;99.90
23550;DHT22;11953;49.010;8.608;2023-07-16T06:56:19;24.30;99.90
23550;DHT22;11953;49.010;8.608;2023-07-16T06:59:06;24.20;99.90
23550;DHT22;11953;49.010;8.608;2023-07-16T07:01:53;24.30;99.90
23550;DHT22;11953;49.010;8.608;2023-07-16T07:04:41;24.30;99.90
23550;DHT22;11953;49.010;8.608;2023-07-16T07:07:27;24.30;99.90
23550;DHT22;11953;49.010;8.608;2023-07-16T07:10:14;24.30;99.90
23550;DHT22;11953;49.010;8.608;2023-07-16T07:13:01;24.30;99.90
23550;DHT22;11953;49.010;8.608;2023-07-16T07:15:47;24.30;99.90
23550;DHT22;11953;49.010;8.608;2023-07-16T07:18:34;24.30;99.90
23550;DHT22;11953;49.010;8.608;2023-07-16T07:21:23;24.30;99.90
23550;DHT22;11953;49.010;8.608;2023-07-16T07:24:09;24.30;99.90
23550;DHT22;11953;49.010;8.608;2023-07-16T07:26:56;24.40;99.90
23550;DHT22;11953;49.010;8.608;2023-07-16T07:29:43;24.30;99.90
23550;DHT22;11953;49.010;8.608;2023-07-16T07:32:32;24.30;99.90
23550;DHT22;11953;49.010;8.608;2023-07-16T07:35:18;24.30;99.90
23550;DHT22;11953;49.010;8.608;2023-07-16T07:38:06;24.40;99.90
23550;DHT22;11953;49.010;8.608;2023-07-16T07:40:53;24.40;99.90
23550;DHT22;11953;49.010;8.608;2023-07-16T07:43:39;24.40;99.90
23550;DHT22;11953;49.010;8.608;2023-07-16T07:46:26;24.40;99.90
23550;DHT22;11953;49.010;8.608;2023-07-16T07:49:13;24.40;99.90
23550;DHT22;11953;49.010;8.608;2023-07-16T07:52:00;24.40;99.90
23550;DHT22;11953;49.010;8.608;2023-07-16T07:54:48;24.40;99.90
23550;DHT22;11953;49.010;8.608;2023-07-16T07:57:35;24.40;99.90
23550;DHT22;11953;49.010;8.608;2023-07-16T08:00:22;24.40;99.90
23550;DHT22;11953;49.010;8.608;2023-07-16T08:03:09;24.40;99.90
23550;DHT22;11953;49.010;8.608;2023-07-16T08:05:56;24.40;99.90
23550;DHT22;11953;49.010;8.608;2023-07-16T08:08:43;24.40;99.90
23550;DHT22;11953;49.010;8.608;2023-07-16T08:11:31;24.50;99.90
23550;DHT22;11953;49.010;8.608;2023-07-16T08:14:18;24.50;99.90
23550;DHT22;11953;49.010;8.608;2023-07-16T08:17:05;24.50;99.90
23550;DHT22;11953;49.010;8.608;2023-07-16T08:19:52;24.50;99.90
23550;DHT22;11953;49.010;8.608;2023-07-16T08:22:39;24.50;99.90
23550;DHT22;11953;49.010;8.608;2023-07-16T08:25:26;24.50;99.90
23550;DHT22;11953;49.010;8.608;2023-07-16T08:28:15;24.50;99.90
23550;DHT22;11953;49.010;8.608;2023-07-16T08:31:01;24.50;99.90
23550;DHT22;11953;49.010;8.608;2023-07-16T08:33:48;24.50;99.90
23550;DHT22;11953;49.010;8.608;2023-07-16T08:36:36;24.50;99.90
23550;DHT22;11953;49.010;8.608;2023-07-16T08:39:23;24.50;99.90
23550;DHT22;11953;49.010;8.608;2023-07-16T08:42:11;24.60;99.90
23550;DHT22;11953;49.010;8.608;2023-07-16T08:45:00;24.50;99.90
23550;DHT22;11953;49.010;8.608;2023-07-16T08:47:47;24.50;99.90
23550;DHT22;11953;49.010;8.608;2023-07-16T08:50:35;24.60;99.90
23550;DHT22;11953;49.010;8.608;2023-07-16T08:53:22;24.50;99.90
23550;DHT22;11953;49.010;8.608;2023-07-16T08:56:09;24.60;99.90
23550;DHT22;11953;49.010;8.608;2023-07-16T08:58:57;24.60;99.90
23550;DHT22;11953;49.010;8.608;2023-07-16T09:01:46;24.60;99.90
23550;DHT22;11953;49.010;8.608;2023-07-16T09:04:34;24.60;99.90
23550;DHT22;11953;49.010;8.608;2023-07-16T09:07:20;24.60;99.90
23550;DHT22;11953;49.010;8.608;2023-07-16T09:10:11;24.60;99.90
23550;DHT22;11953;49.010;8.608;2023-07-16T09:12:58;24.60;99.90
23550;DHT22;11953;49.010;8.608;2023-07-16T09:15:51;24.60;99.90
23550;DHT22;11953;49.010;8.608;2023-07-16T09:18:39;24.60;99.90
23550;DHT22;11953;49.010;8.608;2023-07-16T09:21:27;24.60;99.90
23550;DHT22;11953;49.010;8.608;2023-07-16T09:24:18;24.60;99.90
23550;DHT22;11953;49.010;8.608;2023-07-16T09:27:06;24.60;99.90
23550;DHT22;11953;49.010;8.608;2023-07-16T09:29:52;24.60;99.90
23550;DHT22;11953;49.010;8.608;2023-07-16T09:32:39;24.60;99.90
23550;DHT22;11953;49.010;8.608;2023-07-16T09:35:27;24.60;99.90
23550;DHT22;11953;49.010;8.608;2023-07-16T09:38:14;24.60;99.90
23550;DHT22;11953;49.010;8.608;2023-07-16T09:41:03;24.60;99.90
23550;DHT22;11953;49.010;8.608;2023-07-16T09:43:52;24.60;99.90
23550;DHT22;11953;49.010;8.608;2023-07-16T09:46:39;24.60;99.90
23550;DHT22;11953;49.010;8.608;2023-07-16T09:49:28;24.60;99.90
23550;DHT22;11953;49.010;8.608;2023-07-16T09:52:16;24.60;99.90
23550;DHT22;11953;49.010;8.608;2023-07-16T09:55:04;24.70;99.90
23550;DHT22;11953;49.010;8.608;2023-07-16T09:57:54;24.70;99.90
23550;DHT22;11953;49.010;8.608;2023-07-16T10:00:41;24.70;99.90
23550;DHT22;11953;49.010;8.608;2023-07-16T10:03:28;24.70;99.90
23550;DHT22;11953;49.010;8.608;2023-07-16T10:06:15;24.70;99.90
23550;DHT22;11953;49.010;8.608;2023-07-16T10:09:03;24.70;99.90
23550;DHT22;11953;49.010;8.608;2023-07-16T10:11:50;24.70;99.90
23550;DHT22;11953;49.010;8.608;2023-07-16T10:14:39;24.70;99.90
23550;DHT22;11953;49.010;8.608;2023-07-16T10:17:27;24.70;99.90
23550;DHT22;11953;49.010;8.608;2023-07-16T10:20:13;24.70;99.90
23550;DHT22;11953;49.010;8.608;2023-07-16T10:23:11;24.70;99.90
23550;DHT22;11953;49.010;8.608;2023-07-16T10:26:00;24.70;99.90
23550;DHT22;11953;49.010;8.608;2023-07-16T10:28:51;24.70;99.90
23550;DHT22;11953;49.010;8.608;2023-07-16T10:31:38;24.70;99.90
23550;DHT22;11953;49.010;8.608;2023-07-16T10:34:25;24.70;99.90
23550;DHT22;11953;49.010;8.608;2023-07-16T10:37:12;24.70;99.90
23550;DHT22;11953;49.010;8.608;2023-07-16T10:39:59;24.70;99.90
23550;DHT22;11953;49.010;8.608;2023-07-16T10:42:47;24.70;99.90
23550;DHT22;11953;49.010;8.608;2023-07-16T10:45:34;24.80;99.90
23550;DHT22;11953;49.010;8.608;2023-07-16T10:48:24;24.80;99.90
23550;DHT22;11953;49.010;8.608;2023-07-16T10:51:14;24.70;99.90
23550;DHT22;11953;49.010;8.608;2023-07-16T10:54:01;24.70;99.90
23550;DHT22;11953;49.010;8.608;2023-07-16T10:56:51;24.70;99.90
23550;DHT22;11953;49.010;8.608;2023-07-16T10:59:39;24.80;99.90
23550;DHT22;11953;49.010;8.608;2023-07-16T11:02:27;24.80;99.90
23550;DHT22;11953;49.010;8.608;2023-07-16T11:05:15;24.80;99.90
23550;DHT22;11953;49.010;8.608;2023-07-16T11:08:02;24.80;99.90
23550;DHT22;11953;49.010;8.608;2023-07-16T11:10:53;24.80;99.90
23550;DHT22;11953;49.010;8.608;2023-07-16T11:13:40;24.80;99.90
23550;DHT22;11953;49.010;8.608;2023-07-16T11:16:33;24.80;99.90
23550;DHT22;11953;49.010;8.608;2023-07-16T11:19:20;24.80;99.90
23550;DHT22;11953;49.010;8.608;2023-07-16T11:22:08;24.80;99.90
23550;DHT22;11953;49.010;8.608;2023-07-16T11:24:55;24.80;99.90
23550;DHT22;11953;49.010;8.608;2023-07-16T11:27:42;24.80;99.90
23550;DHT22;11953;49.010;8.608;2023-07-16T11:30:29;24.80;99.90
23550;DHT22;11953;49.010;8.608;2023-07-16T11:33:17;24.90;99.90
23550;DHT22;11953;49.010;8.608;2023-07-16T11:36:04;24.80;99.90
23550;DHT22;11953;49.010;8.608;2023-07-16T11:38:51;24.80;99.90
23550;DHT22;11953;49.010;8.608;2023-07-16T11:41:38;24.80;99.90
23550;DHT22;11953;49.010;8.608;2023-07-16T11:44:25;24.80;99.90
23550;DHT22;11953;49.010;8.608;2023-07-16T11:47:11;24.80;99.90
23550;DHT22;11953;49.010;8.608;2023-07-16T11:50:00;24.80;99.90
23550;DHT22;11953;49.010;8.608;2023-07-16T11:52:52;24.90;99.90
23550;DHT22;11953;49.010;8.608;2023-07-16T11:55:40;24.80;99.90
23550;DHT22;11953;49.010;8.608;2023-07-16T11:58:27;24.80;99.90
23550;DHT22;11953;49.010;8.608;2023-07-16T12:01:13;24.80;99.90
23550;DHT22;11953;49.010;8.608;2023-07-16T12:04:01;24.80;99.90
23550;DHT22;11953;49.010;8.608;2023-07-16T12:06:50;24.80;99.90
23550;DHT22;11953;49.010;8.608;2023-07-16T12:09:36;24.90;99.90
23550;DHT22;11953;49.010;8.608;2023-07-16T12:12:23;24.90;99.90
23550;DHT22;11953;49.010;8.608;2023-07-16T12:15:10;24.90;99.90
23550;DHT22;11953;49.010;8.608;2023-07-16T12:17:57;24.90;99.90
23550;DHT22;11953;49.010;8.608;2023-07-16T12:20:44;24.90;99.90
23550;DHT22;11953;49.010;8.608;2023-07-16T12:23:32;24.90;99.90
23550;DHT22;11953;49.010;8.608;2023-07-16T12:26:19;24.90;99.90
23550;DHT22;11953;49.010;8.608;2023-07-16T12:29:06;24.90;99.90
23550;DHT22;11953;49.010;8.608;2023-07-16T12:31:52;24.90;99.90
23550;DHT22;11953;49.010;8.608;2023-07-16T12:34:39;24.90;99.90
23550;DHT22;11953;49.010;8.608;2023-07-16T12:37:26;24.90;99.90
23550;DHT22;11953;49.010;8.608;2023-07-16T12:40:14;24.90;99.90
23550;DHT22;11953;49.010;8.608;2023-07-16T12:43:02;24.90;99.90
23550;DHT22;11953;49.010;8.608;2023-07-16T12:45:49;24.90;99.90
23550;DHT22;11953;49.010;8.608;2023-07-16T12:48:36;24.90;99.90
23550;DHT22;11953;49.010;8.608;2023-07-16T12:51:26;24.90;99.90
23550;DHT22;11953;49.010;8.608;2023-07-16T12:54:13;24.80;99.90
23550;DHT22;11953;49.010;8.608;2023-07-16T12:57:01;24.80;99.70
23550;DHT22;11953;49.010;8.608;2023-07-16T12:59:48;24.80;99.00
23550;DHT22;11953;49.010;8.608;2023-07-16T13:02:36;24.70;98.10
23550;DHT22;11953;49.010;8.608;2023-07-16T13:05:23;24.70;97.40
23550;DHT22;11953;49.010;8.608;2023-07-16T13:08:09;24.60;96.50
23550;DHT22;11953;49.010;8.608;2023-07-16T13:10:56;24.60;95.60
23550;DHT22;11953;49.010;8.608;2023-07-16T13:13:44;24.60;95.30
23550;DHT22;11953;49.010;8.608;2023-07-16T13:16:31;24.60;95.10
23550;DHT22;11953;49.010;8.608;2023-07-16T13:19:18;24.60;94.80
23550;DHT22;11953;49.010;8.608;2023-07-16T13:22:04;24.60;94.60
23550;DHT22;11953;49.010;8.608;2023-07-16T13:24:51;24.60;94.50
23550;DHT22;11953;49.010;8.608;2023-07-16T13:27:38;24.60;94.10
23550;DHT22;11953;49.010;8.608;2023-07-16T13:30:26;24.60;93.90
23550;DHT22;11953;49.010;8.608;2023-07-16T13:33:13;24.60;93.80
23550;DHT22;11953;49.010;8.608;2023-07-16T13:36:00;24.70;93.70
23550;DHT22;11953;49.010;8.608;2023-07-16T13:38:49;24.70;94.00
23550;DHT22;11953;49.010;8.608;2023-07-16T13:41:36;24.70;94.00
23550;DHT22;11953;49.010;8.608;2023-07-16T13:44:23;24.70;94.00
23550;DHT22;11953;49.010;8.608;2023-07-16T13:47:11;24.70;94.10
23550;DHT22;11953;49.010;8.608;2023-07-16T13:49:57;24.70;94.30
23550;DHT22;11953;49.010;8.608;2023-07-16T13:52:44;24.70;94.60
23550;DHT22;11953;49.010;8.608;2023-07-16T13:55:31;24.80;94.90
23550;DHT22;11953;49.010;8.608;2023-07-16T13:58:18;24.80;95.70
23550;DHT22;11953;49.010;8.608;2023-07-16T14:01:04;24.80;96.10
23550;DHT22;11953;49.010;8.608;2023-07-16T14:03:52;24.80;96.80
23550;DHT22;11953;49.010;8.608;2023-07-16T14:06:39;24.90;97.00
23550;DHT22;11953;49.010;8.608;2023-07-16T14:09:26;24.90;97.40
23550;DHT22;11953;49.010;8.608;2023-07-16T14:12:12;24.90;97.60
23550;DHT22;11953;49.010;8.608;2023-07-16T14:14:59;24.90;97.90
23550;DHT22;11953;49.010;8.608;2023-07-16T14:17:46;24.90;98.10
23550;DHT22;11953;49.010;8.608;2023-07-16T14:20:34;24.90;98.00
23550;DHT22;11953;49.010;8.608;2023-07-16T14:23:20;24.90;98.00
23550;DHT22;11953;49.010;8.608;2023-07-16T14:26:07;24.90;98.00
23550;DHT22;11953;49.010;8.608;2023-07-16T14:28:54;25.00;98.10
23550;DHT22;11953;49.010;8.608;2023-07-16T14:31:41;25.00;98.10
23550;DHT22;11953;49.010;8.608;2023-07-16T14:34:28;24.90;98.10
23550;DHT22;11953;49.010;8.608;2023-07-16T14:37:16;25.00;98.00
23550;DHT22;11953;49.010;8.608;2023-07-16T14:40:04;25.00;98.00
23550;DHT22;11953;49.010;8.608;2023-07-16T14:42:53;25.10;98.00
23550;DHT22;11953;49.010;8.608;2023-07-16T14:45:39;25.10;98.10
23550;DHT22;11953;49.010;8.608;2023-07-16T14:48:26;25.10;98.20
23550;DHT22;11953;49.010;8.608;2023-07-16T14:51:13;25.10;98.80
23550;DHT22;11953;49.010;8.608;2023-07-16T14:54:01;25.10;99.50
23550;DHT22;11953;49.010;8.608;2023-07-16T14:56:49;25.20;99.90
23550;DHT22;11953;49.010;8.608;2023-07-16T14:59:35;25.20;99.90
23550;DHT22;11953;49.010;8.608;2023-07-16T15:02:23;25.20;99.90
23550;DHT22;11953;49.010;8.608;2023-07-16T15:05:10;25.20;99.90
23550;DHT22;11953;49.010;8.608;2023-07-16T15:07:56;25.30;99.60
23550;DHT22;11953;49.010;8.608;2023-07-16T15:10:44;25.40;99.30
23550;DHT22;11953;49.010;8.608;2023-07-16T15:13:32;25.40;99.40
23550;DHT22;11953;49.010;8.608;2023-07-16T15:16:19;25.40;99.50
23550;DHT22;11953;49.010;8.608;2023-07-16T15:19:06;25.50;99.70
23550;DHT22;11953;49.010;8.608;2023-07-16T15:21:53;25.50;99.40
23550;DHT22;11953;49.010;8.608;2023-07-16T15:24:40;25.60;99.70
23550;DHT22;11953;49.010;8.608;2023-07-16T15:27:28;25.60;99.40
23550;DHT22;11953;49.010;8.608;2023-07-16T15:30:14;25.60;99.40
23550;DHT22;11953;49.010;8.608;2023-07-16T15:33:01;25.70;99.30
23550;DHT22;11953;49.010;8.608;2023-07-16T15:35:48;25.80;99.20
23550;DHT22;11953;49.010;8.608;2023-07-16T15:38:34;25.80;99.20
23550;DHT22;11953;49.010;8.608;2023-07-16T15:41:24;25.80;99.00
23550;DHT22;11953;49.010;8.608;2023-07-16T15:44:15;25.90;99.00
23550;DHT22;11953;49.010;8.608;2023-07-16T15:47:02;26.00;99.00
23550;DHT22;11953;49.010;8.608;2023-07-16T15:49:49;26.00;98.90
23550;DHT22;11953;49.010;8.608;2023-07-16T15:52:36;26.10;98.90
23550;DHT22;11953;49.010;8.608;2023-07-16T15:55:23;26.10;98.80
23550;DHT22;11953;49.010;8.608;2023-07-16T15:58:11;26.20;98.70
23550;DHT22;11953;49.010;8.608;2023-07-16T16:00:59;26.30;98.90
23550;DHT22;11953;49.010;8.608;2023-07-16T16:03:46;26.30;98.70
23550;DHT22;11953;49.010;8.608;2023-07-16T16:06:33;26.40;98.60
23550;DHT22;11953;49.010;8.608;2023-07-16T16:09:22;26.50;98.40
23550;DHT22;11953;49.010;8.608;2023-07-16T16:12:10;26.50;98.30
23550;DHT22;11953;49.010;8.608;2023-07-16T16:14:57;26.60;98.20
23550;DHT22;11953;49.010;8.608;2023-07-16T16:17:45;26.70;98.10
23550;DHT22;11953;49.010;8.608;2023-07-16T16:20:32;26.70;98.00
23550;DHT22;11953;49.010;8.608;2023-07-16T16:23:19;26.80;97.90
23550;DHT22;11953;49.010;8.608;2023-07-16T16:26:06;26.80;98.10
23550;DHT22;11953;49.010;8.608;2023-07-16T16:28:53;26.90;97.80
23550;DHT22;11953;49.010;8.608;2023-07-16T16:31:40;26.90;97.70
23550;DHT22;11953;49.010;8.608;2023-07-16T16:34:28;27.00;97.60
23550;DHT22;11953;49.010;8.608;2023-07-16T16:37:15;27.00;97.50
23550;DHT22;11953;49.010;8.608;2023-07-16T16:40:02;27.00;97.40
23550;DHT22;11953;49.010;8.608;2023-07-16T16:42:51;27.10;97.50
23550;DHT22;11953;49.010;8.608;2023-07-16T16:45:38;27.10;97.70
23550;DHT22;11953;49.010;8.608;2023-07-16T16:48:27;27.20;97.40
23550;DHT22;11953;49.010;8.608;2023-07-16T16:51:17;27.20;97.30
23550;DHT22;11953;49.010;8.608;2023-07-16T16:54:05;27.20;97.30
23550;DHT22;11953;49.010;8.608;2023-07-16T16:56:52;27.20;97.30
23550;DHT22;11953;49.010;8.608;2023-07-16T16:59:38;27.30;97.30
23550;DHT22;11953;49.010;8.608;2023-07-16T17:02:26;27.20;97.30
23550;DHT22;11953;49.010;8.608;2023-07-16T17:05:13;27.30;97.30
23550;DHT22;11953;49.010;8.608;2023-07-16T17:08:01;27.30;97.40
23550;DHT22;11953;49.010;8.608;2023-07-16T17:10:49;27.30;97.40
23550;DHT22;11953;49.010;8.608;2023-07-16T17:13:36;27.30;97.40
23550;DHT22;11953;49.010;8.608;2023-07-16T17:16:22;27.30;97.30
23550;DHT22;11953;49.010;8.608;2023-07-16T17:19:09;27.40;97.40
23550;DHT22;11953;49.010;8.608;2023-07-16T17:21:56;27.40;97.40
23550;DHT22;11953;49.010;8.608;2023-07-16T17:24:44;27.40;97.40
23550;DHT22;11953;49.010;8.608;2023-07-16T17:27:31;27.20;97.50
23550;DHT22;11953;49.010;8.608;2023-07-16T17:30:17;27.00;97.70
23550;DHT22;11953;49.010;8.608;2023-07-16T17:33:04;26.90;97.90
23550;DHT22;11953;49.010;8.608;2023-07-16T17:35:51;26.80;98.00
23550;DHT22;11953;49.010;8.608;2023-07-16T17:38:38;26.70;98.10
23550;DHT22;11953;49.010;8.608;2023-07-16T17:41:26;26.70;98.20